Time;durP1;ratioP1;P1;durP2;ratioP2;P2;SDS_P1;SDS_P2;PMS_P1;PMS_P2;Temp;Humidity;BMP_temperature;BMP_pressure;BME280_temperature;BME280_humidity;BME280_pressure;Samples;Min_cycle;Max_cycle;Signal;HPM_P1;HPM_P2
2021/06/18 00:00:29;;;;;;;6.07;3.58;;;;;;;16.98;100.00;95705.88;1053107;28;20107;-49
2021/06/18 00:01:00;;;;;;;8.20;3.65;;;;;;;16.96;100.00;95710.50;1053066;28;20481;-49
2021/06/18 00:01:31;;;;;;;5.90;3.40;;;;;;;16.93;100.00;95709.00;1053027;28;20026;-50
2021/06/18 00:02:02;;;;;;;5.13;3.17;;;;;;;16.94;100.00;95708.00;1053209;28;20012;-50
2021/06/18 00:02:32;;;;;;;8.65;3.65;;;;;;;16.93;100.00;95706.34;1053105;28;20009;-51
2021/06/18 00:03:04;;;;;;;6.95;3.63;;;;;;;16.93;100.00;95705.50;1053114;28;20020;-50
2021/06/18 00:03:34;;;;;;;8.40;3.55;;;;;;;16.91;100.00;95716.22;1052679;28;20054;-51
2021/06/18 00:04:06;;;;;;;7.97;3.50;;;;;;;16.89;100.00;95705.81;1053000;28;20020;-50
2021/06/18 00:04:36;;;;;;;10.07;3.83;;;;;;;16.88;100.00;95709.44;1053181;28;20515;-51
2021/06/18 00:05:08;;;;;;;6.25;3.63;;;;;;;16.87;100.00;95710.44;1053036;28;20016;-50
2021/06/18 00:05:39;;;;;;;6.88;3.45;;;;;;;16.85;100.00;95707.06;1053095;28;20012;-50
2021/06/18 00:06:10;;;;;;;6.45;3.90;;;;;;;16.83;100.00;95703.75;1053194;28;20023;-49
2021/06/18 00:06:41;;;;;;;5.40;3.10;;;;;;;16.81;100.00;95703.03;1053165;28;20036;-51
2021/06/18 00:07:12;;;;;;;6.72;3.45;;;;;;;16.84;100.00;95705.44;1053113;28;20139;-49
2021/06/18 00:07:49;;;;;;;9.02;3.92;;;;;;;16.82;100.00;95709.19;1053042;28;20016;-50
2021/06/18 00:08:20;;;;;;;9.15;3.80;;;;;;;16.80;100.00;95705.84;1053150;28;20019;-49
2021/06/18 00:08:50;;;;;;;8.68;3.85;;;;;;;16.80;100.00;95709.34;1053028;28;20032;-50
2021/06/18 00:09:21;;;;;;;7.45;3.45;;;;;;;16.80;100.00;95708.50;1053048;28;20016;-50
2021/06/18 00:09:52;;;;;;;7.70;3.53;;;;;;;16.79;100.00;95714.78;1052990;28;20070;-49
2021/06/18 00:10:24;;;;;;;6.07;3.70;;;;;;;16.77;100.00;95722.03;1053222;28;20061;-50
2021/06/18 00:10:55;;;;;;;6.78;3.58;;;;;;;16.77;100.00;95717.56;1053152;28;20023;-50
2021/06/18 00:11:25;;;;;;;9.27;3.65;;;;;;;16.75;100.00;95716.06;1053081;28;20035;-50
2021/06/18 00:11:57;;;;;;;6.45;3.33;;;;;;;16.77;100.00;95714.94;1052958;28;20012;-50
2021/06/18 00:12:27;;;;;;;5.85;3.97;;;;;;;16.78;100.00;95721.03;1053173;28;20076;-49
2021/06/18 00:12:58;;;;;;;6.28;3.60;;;;;;;16.75;100.00;95719.53;1053157;28;20092;-49
2021/06/18 00:13:29;;;;;;;9.00;3.97;;;;;;;16.74;100.00;95719.69;1052685;28;20016;-50
2021/06/18 00:14:00;;;;;;;15.27;3.90;;;;;;;16.72;100.00;95719.84;1052415;28;20096;-50
2021/06/18 00:14:32;;;;;;;6.65;3.55;;;;;;;16.73;100.00;95716.22;1053221;28;20077;-50
2021/06/18 00:15:04;;;;;;;11.60;3.53;;;;;;;16.71;100.00;95719.00;1053166;28;20022;-50
2021/06/18 00:15:34;;;;;;;8.27;4.10;;;;;;;16.69;100.00;95720.97;1053185;28;20023;-49
2021/06/18 00:16:05;;;;;;;10.63;3.65;;;;;;;16.67;100.00;95722.13;1053036;28;20612;-49
2021/06/18 00:16:36;;;;;;;5.57;4.13;;;;;;;16.65;100.00;95716.97;1053108;28;20020;-49
2021/06/18 00:17:07;;;;;;;7.07;3.65;;;;;;;16.67;100.00;95716.84;1053095;28;20039;-49
2021/06/18 00:17:38;;;;;;;6.95;3.58;;;;;;;16.69;100.00;95714.88;1053064;28;20016;-50
2021/06/18 00:18:09;;;;;;;4.47;3.47;;;;;;;16.70;100.00;95724.44;1053066;28;20095;-50
2021/06/18 00:18:42;;;;;;;6.15;3.65;;;;;;;16.68;100.00;95723.78;1053175;28;20017;-49
2021/06/18 00:19:12;;;;;;;6.47;3.92;;;;;;;16.69;100.00;95714.88;1053118;28;20047;-49
2021/06/18 00:19:43;;;;;;;8.80;3.60;;;;;;;16.71;100.00;95721.66;1052923;28;20482;-50
2021/06/18 00:20:14;;;;;;;7.65;3.85;;;;;;;16.74;100.00;95712.56;1053057;28;20020;-49
2021/06/18 00:20:45;;;;;;;6.50;3.40;;;;;;;16.71;100.00;95719.00;1053129;28;20557;-49
2021/06/18 00:21:15;;;;;;;8.55;3.45;;;;;;;16.71;100.00;95718.19;1053170;28;20036;-51
2021/06/18 00:21:46;;;;;;;4.57;3.22;;;;;;;16.68;100.00;95716.66;1052929;28;20017;-50
2021/06/18 00:22:17;;;;;;;4.93;3.30;;;;;;;16.68;100.00;95723.78;1053093;28;20015;-49
2021/06/18 00:22:47;;;;;;;6.05;3.22;;;;;;;16.67;100.00;95715.00;1053181;28;20017;-49
2021/06/18 00:23:19;;;;;;;5.30;3.40;;;;;;;16.66;100.00;95715.16;1053186;28;20362;-50
2021/06/18 00:23:49;;;;;;;5.43;3.58;;;;;;;16.66;100.00;95717.81;1052749;28;20024;-51
2021/06/18 00:24:20;;;;;;;5.47;3.60;;;;;;;16.65;100.00;95721.44;1053660;28;20087;-50
2021/06/18 00:24:51;;;;;;;5.78;3.30;;;;;;;16.64;100.00;95720.59;1053336;28;20020;-50
2021/06/18 00:25:22;;;;;;;6.13;3.83;;;;;;;16.62;100.00;95711.97;1053211;28;20042;-50
2021/06/18 00:25:52;;;;;;;6.13;3.60;;;;;;;16.62;100.00;95717.28;1052887;28;20500;-49
2021/06/18 00:26:23;;;;;;;5.47;3.28;;;;;;;16.61;100.00;95722.72;1053121;28;20038;-49
2021/06/18 00:26:54;;;;;;;6.68;3.45;;;;;;;16.60;100.00;95716.59;1052799;28;20489;-50
2021/06/18 00:27:25;;;;;;;8.80;3.95;;;;;;;16.60;100.00;95716.59;1052745;28;20106;-49
2021/06/18 00:27:56;;;;;;;8.13;3.53;;;;;;;16.59;100.00;95722.88;1052569;28;20028;-50
2021/06/18 00:28:28;;;;;;;5.72;3.97;;;;;;;16.58;100.00;95721.19;1052729;28;20017;-49
2021/06/18 00:28:58;;;;;;;5.55;3.70;;;;;;;16.56;100.00;95725.81;1053119;28;20087;-50
2021/06/18 00:29:29;;;;;;;5.97;3.58;;;;;;;16.55;100.00;95723.31;1052628;28;20367;-49
2021/06/18 00:30:00;;;;;;;5.88;3.60;;;;;;;16.54;100.00;95719.84;1052581;28;20095;-49
2021/06/18 00:30:31;;;;;;;5.60;3.20;;;;;;;16.49;100.00;95717.63;1052774;28;20421;-50
2021/06/18 00:31:02;;;;;;;7.57;3.45;;;;;;;16.47;100.00;95719.59;1052800;28;20502;-49
2021/06/18 00:31:33;;;;;;;7.32;3.30;;;;;;;16.45;100.00;95720.75;1053082;28;20015;-50
2021/06/18 00:32:04;;;;;;;8.75;3.55;;;;;;;16.42;100.00;95715.75;1052716;28;20048;-50
2021/06/18 00:32:35;;;;;;;7.22;3.80;;;;;;;16.41;100.00;95714.91;1052955;28;20023;-49
2021/06/18 00:33:06;;;;;;;7.75;3.47;;;;;;;16.40;100.00;95721.19;1053054;28;20023;-50
2021/06/18 00:33:37;;;;;;;6.35;4.05;;;;;;;16.40;100.00;95717.72;1052421;28;20055;-49
2021/06/18 00:34:08;;;;;;;4.95;3.33;;;;;;;16.40;100.00;95723.81;1052641;28;20012;-51
2021/06/18 00:34:38;;;;;;;8.32;3.47;;;;;;;16.43;100.00;95720.06;1052833;28;20033;-49
2021/06/18 00:35:10;;;;;;;6.05;3.60;;;;;;;16.44;100.00;95719.94;1052702;28;20146;-48
2021/06/18 00:35:41;;;;;;;5.20;3.63;;;;;;;16.30;100.00;95697.44;1052715;28;20100;-50
2021/06/18 00:36:12;;;;;;;8.60;3.50;;;;;;;16.48;100.00;95715.16;1052500;28;20012;-50
2021/06/18 00:36:43;;;;;;;6.90;3.67;;;;;;;16.47;100.00;95718.78;1052832;28;20016;-50
2021/06/18 00:37:14;;;;;;;6.10;3.63;;;;;;;16.48;100.00;95716.00;1053172;28;20096;-49
2021/06/18 00:37:44;;;;;;;6.78;3.83;;;;;;;16.49;100.00;95716.81;1053041;28;20137;-50
2021/06/18 00:38:16;;;;;;;6.70;3.80;;;;;;;16.47;100.00;95716.13;1052856;28;20018;-49
2021/06/18 00:38:46;;;;;;;5.20;3.30;;;;;;;16.44;100.00;95708.50;1053059;28;20062;-49
2021/06/18 00:39:17;;;;;;;6.50;3.70;;;;;;;16.39;100.00;95722.19;1052936;28;20146;-50
2021/06/18 00:39:48;;;;;;;7.57;3.50;;;;;;;16.39;100.00;95719.53;1053030;28;20024;-50
2021/06/18 00:40:19;;;;;;;5.45;3.25;;;;;;;16.37;100.00;95718.84;1052826;28;20494;-49
2021/06/18 00:40:49;;;;;;;6.95;3.63;;;;;;;16.33;100.00;95726.25;1053026;28;20035;-49
2021/06/18 00:41:20;;;;;;;5.93;3.80;;;;;;;16.32;100.00;95715.81;1053037;28;20473;-51
2021/06/18 00:41:51;;;;;;;5.25;3.60;;;;;;;16.31;100.00;95720.28;1052941;28;20012;-50
2021/06/18 00:42:22;;;;;;;8.32;3.53;;;;;;;16.33;100.00;95717.50;1052774;28;20019;-51
2021/06/18 00:42:53;;;;;;;6.72;3.38;;;;;;;16.31;100.00;95717.63;1053013;28;20023;-48
2021/06/18 00:43:24;;;;;;;7.00;3.65;;;;;;;16.31;100.00;95716.78;1052918;28;20470;-49
2021/06/18 00:43:55;;;;;;;7.72;3.97;;;;;;;16.29;100.00;95711.66;1052537;28;20009;-50
2021/06/18 00:44:26;;;;;;;6.75;3.50;;;;;;;16.28;100.00;95714.47;1052868;28;20012;-50
2021/06/18 00:44:56;;;;;;;4.38;3.13;;;;;;;16.27;100.00;95721.56;1053075;28;20015;-50
2021/06/18 00:45:27;;;;;;;6.53;3.72;;;;;;;16.26;100.00;95711.13;1053051;28;20500;-50
2021/06/18 00:45:58;;;;;;;6.55;3.47;;;;;;;16.25;100.00;95720.84;1052998;28;20020;-49
2021/06/18 00:46:29;;;;;;;4.95;3.53;;;;;;;16.24;100.00;95718.38;1052860;28;20020;-50
2021/06/18 00:47:00;;;;;;;7.50;3.78;;;;;;;16.24;100.00;95721.03;1053008;28;20073;-49
2021/06/18 00:47:31;;;;;;;7.18;3.22;;;;;;;16.22;100.00;95712.41;1052980;28;20138;-50
2021/06/18 00:48:02;;;;;;;7.72;3.67;;;;;;;16.21;100.00;95716.03;1052851;28;20490;-49
2021/06/18 00:48:33;;;;;;;5.88;3.90;;;;;;;16.23;100.00;95711.41;1052914;28;20495;-51
2021/06/18 00:49:04;;;;;;;7.13;3.63;;;;;;;16.21;100.00;95716.84;1053119;28;20016;-49
2021/06/18 00:49:35;;;;;;;5.47;3.40;;;;;;;16.21;100.00;95718.66;1052972;28;20134;-49
2021/06/18 00:50:06;;;;;;;6.75;3.70;;;;;;;16.19;100.00;95720.63;1052940;28;20008;-49
2021/06/18 00:50:37;;;;;;;6.70;3.50;;;;;;;16.18;100.00;95725.09;1052894;28;20076;-50
2021/06/18 00:51:08;;;;;;;7.60;3.80;;;;;;;16.19;100.00;95725.91;1053001;28;20493;-48
2021/06/18 00:51:39;;;;;;;5.63;3.40;;;;;;;16.22;100.00;95717.69;1053010;28;20019;-50
2021/06/18 00:52:09;;;;;;;5.68;3.30;;;;;;;16.24;100.00;95718.38;1052690;28;20015;-50
2021/06/18 00:52:40;;;;;;;9.68;3.83;;;;;;;16.29;100.00;95714.31;1052848;28;20189;-48
2021/06/18 00:53:12;;;;;;;5.93;3.40;;;;;;;16.31;100.00;95719.44;1052928;28;20024;-49
2021/06/18 00:53:43;;;;;;;6.57;3.70;;;;;;;16.29;100.00;95713.47;1052365;28;20028;-50
2021/06/18 00:54:14;;;;;;;8.55;3.75;;;;;;;16.27;100.00;95718.91;1052933;28;20020;-50
2021/06/18 00:54:46;;;;;;;5.35;3.60;;;;;;;16.28;100.00;95717.94;1052893;28;20474;-51
2021/06/18 00:55:17;;;;;;;7.38;3.75;;;;;;;16.26;100.00;95719.06;1052948;28;20019;-49
2021/06/18 00:55:48;;;;;;;6.28;3.50;;;;;;;16.24;100.00;95713.91;1052978;28;20091;-50
2021/06/18 00:56:19;;;;;;;7.10;3.58;;;;;;;16.23;100.00;95716.72;1052813;28;20027;-51
2021/06/18 00:56:49;;;;;;;8.32;3.92;;;;;;;16.21;100.00;95714.19;1052801;28;20023;-50
2021/06/18 00:57:20;;;;;;;8.65;3.70;;;;;;;16.21;100.00;95716.03;1052961;28;20028;-49
2021/06/18 00:57:51;;;;;;;6.28;3.80;;;;;;;16.18;100.00;95716.31;1053038;28;20024;-50
2021/06/18 00:58:22;;;;;;;6.18;3.85;;;;;;;16.18;100.00;95716.31;1053010;28;20077;-48
2021/06/18 00:58:53;;;;;;;7.47;3.78;;;;;;;16.18;100.00;95724.25;1052869;28;20405;-49
2021/06/18 00:59:24;;;;;;;7.53;3.95;;;;;;;16.16;100.00;95720.91;1052888;28;20032;-51
2021/06/18 00:59:54;;;;;;;7.05;3.75;;;;;;;16.13;100.00;95722.06;1052945;28;20043;-49
2021/06/18 01:00:25;;;;;;;7.15;4.00;;;;;;;16.16;100.00;95721.78;1052783;28;20091;-50
2021/06/18 01:00:56;;;;;;;5.60;3.70;;;;;;;16.12;100.00;95725.66;1052900;28;20093;-50
2021/06/18 01:01:27;;;;;;;6.10;4.05;;;;;;;16.11;100.00;95721.38;1052713;28;20087;-50
2021/06/18 01:01:57;;;;;;;10.15;4.30;;;;;;;16.09;100.00;95723.34;1052911;28;20012;-50
2021/06/18 01:02:28;;;;;;;5.97;3.53;;;;;;;16.06;100.00;95721.81;1052766;28;20008;-50
2021/06/18 01:02:59;;;;;;;5.18;4.03;;;;;;;16.06;100.00;95726.25;1052582;28;20016;-50
2021/06/18 01:03:30;;;;;;;7.55;3.78;;;;;;;16.05;100.00;95727.25;1052121;28;20015;-49
2021/06/18 01:04:01;;;;;;;6.60;3.72;;;;;;;16.05;100.00;95727.25;1052459;28;20022;-49
2021/06/18 01:04:32;;;;;;;8.10;4.43;;;;;;;16.05;100.00;95727.25;1052590;28;20058;-51
2021/06/18 01:05:04;;;;;;;4.93;3.33;;;;;;;16.10;100.00;95730.28;1053008;28;20016;-50
2021/06/18 01:05:35;;;;;;;6.35;4.38;;;;;;;16.10;100.00;95730.28;1052825;28;20019;-49
2021/06/18 01:06:06;;;;;;;7.55;4.00;;;;;;;16.10;100.00;95724.97;1052960;28;20091;-49
2021/06/18 01:06:37;;;;;;;5.90;4.07;;;;;;;16.10;100.00;95723.19;1052955;28;20374;-49
2021/06/18 01:07:11;;;;;;;8.48;3.63;;;;;;;16.10;100.00;95730.28;1052934;28;20008;-51
2021/06/18 01:07:45;;;;;;;9.70;4.30;;;;;;;16.08;100.00;95727.75;1052998;28;20386;-49
2021/06/18 01:08:28;;;;;;;6.75;4.13;;;;;;;16.08;100.00;95729.59;1052875;28;20047;-51
2021/06/18 01:09:03;;;;;;;6.65;4.30;;;;;;;16.03;100.00;95731.84;1053012;28;20016;-50
2021/06/18 01:09:41;;;;;;;5.38;4.32;;;;;;;15.96;100.00;95731.59;1052752;28;20024;-50
2021/06/18 01:10:24;;;;;;;5.97;4.15;;;;;;;15.91;100.00;95729.38;1052843;28;20004;-50
2021/06/18 01:11:11;;;;;;;7.70;3.83;;;;;;;15.98;100.00;95739.38;1053002;28;20377;-49
2021/06/18 01:12:02;;;;;;;6.72;3.92;;;;;;;16.02;100.00;95731.00;1052840;28;20078;-51
2021/06/18 01:12:37;;;;;;;9.00;3.90;;;;;;;16.05;100.00;95743.13;1052851;28;20439;-50
2021/06/18 01:13:20;;;;;;;10.13;4.22;;;;;;;16.04;100.00;95755.47;1052864;28;20023;-51
2021/06/18 01:13:54;;;;;;;6.78;3.92;;;;;;;16.03;100.00;95752.97;1052170;28;20374;-50
2021/06/18 01:14:38;;;;;;;5.75;3.60;;;;;;;16.02;100.00;95746.03;1052835;28;20012;-50
2021/06/18 01:15:22;;;;;;;6.82;3.97;;;;;;;16.05;100.00;95749.22;1052997;28;20534;-47
2021/06/18 01:16:03;;;;;;;6.57;3.67;;;;;;;16.06;100.00;95732.38;1052798;28;20068;-50
2021/06/18 01:16:37;;;;;;;8.35;4.50;;;;;;;15.99;100.00;95736.59;1052885;28;20055;-51
2021/06/18 01:17:24;;;;;;;6.65;3.90;;;;;;;15.99;100.00;95738.41;1052869;28;20020;-50
2021/06/18 01:18:05;;;;;;;5.47;3.60;;;;;;;15.88;100.00;95726.22;1052792;28;20501;-49
2021/06/18 01:18:39;;;;;;;9.00;4.25;;;;;;;15.87;100.00;95730.66;1052858;28;20020;-50
2021/06/18 01:19:15;;;;;;;6.80;4.00;;;;;;;15.87;100.00;95729.84;1052850;28;20103;-49
2021/06/18 01:19:54;;;;;;;6.03;4.05;;;;;;;15.88;100.00;95728.88;1052845;28;20457;-49
2021/06/18 01:20:40;;;;;;;8.35;4.45;;;;;;;15.86;100.00;95729.00;1052789;28;20020;-49
2021/06/18 01:21:15;;;;;;;7.75;4.20;;;;;;;15.92;100.00;95728.41;1052931;28;20023;-50
2021/06/18 01:21:52;;;;;;;7.25;3.75;;;;;;;15.95;100.00;95724.63;1052786;28;20030;-51
2021/06/18 01:22:23;;;;;;;8.38;4.40;;;;;;;15.95;100.00;95724.63;1052765;28;20041;-49
2021/06/18 01:22:54;;;;;;;7.20;4.35;;;;;;;15.92;100.00;95733.72;1052833;28;20551;-48
2021/06/18 01:23:47;;;;;;;7.53;3.72;;;;;;;15.97;100.00;95738.53;1052633;28;20105;-48
2021/06/18 01:24:27;;;;;;;5.75;4.25;;;;;;;15.91;100.00;95729.38;1052696;28;20080;-51
2021/06/18 01:25:19;;;;;;;8.65;3.95;;;;;;;15.91;100.00;95732.03;1052848;28;20031;-49
2021/06/18 01:25:52;;;;;;;6.03;4.00;;;;;;;15.88;100.00;95728.88;1052924;28;20046;-49
2021/06/18 01:26:23;;;;;;;6.18;3.42;;;;;;;15.88;100.00;95721.78;1052667;28;20389;-51
2021/06/18 01:27:15;;;;;;;8.63;4.05;;;;;;;15.87;100.00;95721.91;1052916;28;20020;-51
2021/06/18 01:27:52;;;;;;;5.93;3.92;;;;;;;15.80;100.00;95719.00;1052905;28;20084;-49
2021/06/18 01:28:33;;;;;;;7.97;4.47;;;;;;;15.80;100.00;95720.81;1052639;28;20020;-49
2021/06/18 01:29:04;;;;;;;8.10;4.50;;;;;;;15.73;100.00;95718.78;1052958;28;20095;-49
2021/06/18 01:29:37;;;;;;;10.57;4.88;;;;;;;15.70;100.00;95719.03;1052709;28;20028;-50
2021/06/18 01:30:09;;;;;;;9.30;4.30;;;;;;;15.67;100.00;95719.34;1052733;28;20024;-50
2021/06/18 01:30:40;;;;;;;10.15;3.97;;;;;;;15.65;100.00;95720.44;1052715;28;20027;-50
2021/06/18 01:31:14;;;;;;;7.30;4.90;;;;;;;15.67;100.00;95718.47;1052859;28;20512;-50
2021/06/18 01:31:45;;;;;;;6.32;4.30;;;;;;;15.73;100.00;95717.91;1052812;28;20027;-49
2021/06/18 01:32:21;;;;;;;5.15;3.67;;;;;;;15.74;100.00;95720.41;1052520;28;20107;-52
2021/06/18 01:32:57;;;;;;;6.35;4.10;;;;;;;15.78;100.00;95718.31;1052903;28;20040;-50
2021/06/18 01:33:28;;;;;;;8.25;4.30;;;;;;;15.79;100.00;95720.00;1052711;28;20031;-49
2021/06/18 01:34:02;;;;;;;6.32;4.32;;;;;;;15.73;100.00;95712.63;1052664;28;20039;-50
2021/06/18 01:34:32;;;;;;;6.25;3.95;;;;;;;15.73;100.00;95713.50;1052579;28;20020;-51
2021/06/18 01:35:04;;;;;;;7.53;4.25;;;;;;;15.74;100.00;95716.94;1052802;28;20478;-50
2021/06/18 01:35:40;;;;;;;7.75;4.40;;;;;;;15.72;100.00;95716.25;1052873;28;20068;-49
2021/06/18 01:36:13;;;;;;;10.50;4.18;;;;;;;15.70;100.00;95718.19;1052804;28;20447;-50
2021/06/18 01:36:46;;;;;;;5.60;4.32;;;;;;;15.70;100.00;95716.38;1052598;28;20031;-49
2021/06/18 01:37:19;;;;;;;12.85;4.15;;;;;;;15.70;100.00;95716.38;1052804;28;20031;-50
2021/06/18 01:37:53;;;;;;;5.53;3.80;;;;;;;15.69;100.00;95711.25;1052761;28;20023;-50
2021/06/18 01:38:24;;;;;;;8.23;4.05;;;;;;;15.72;100.00;95713.59;1052777;28;20046;-50
2021/06/18 01:38:57;;;;;;;8.93;4.43;;;;;;;15.71;100.00;95712.78;1052753;28;20019;-50
2021/06/18 01:39:28;;;;;;;6.13;4.10;;;;;;;15.68;100.00;95712.22;1052770;28;20027;-49
2021/06/18 01:40:01;;;;;;;6.00;3.92;;;;;;;15.67;100.00;95718.47;1052754;28;20481;-50
2021/06/18 01:40:32;;;;;;;8.10;4.55;;;;;;;15.68;100.00;95710.41;1052638;28;20020;-49
2021/06/18 01:41:04;;;;;;;5.60;3.88;;;;;;;15.72;100.00;95718.88;1052735;28;20478;-49
2021/06/18 01:41:35;;;;;;;5.65;3.70;;;;;;;15.66;100.00;95716.81;1052540;28;20020;-51
2021/06/18 01:42:06;;;;;;;6.25;3.90;;;;;;;15.63;100.00;95712.66;1052577;28;20020;-50
2021/06/18 01:42:40;;;;;;;8.68;4.30;;;;;;;15.62;100.00;95720.75;1052237;28;20020;-49
2021/06/18 01:43:11;;;;;;;8.38;4.43;;;;;;;15.62;100.00;95713.66;1052547;28;20020;-50
2021/06/18 01:43:43;;;;;;;9.00;3.90;;;;;;;15.60;100.00;95710.31;1052236;28;20020;-49
2021/06/18 01:44:14;;;;;;;8.48;4.32;;;;;;;15.59;100.00;95711.28;1052736;28;20020;-50
2021/06/18 01:44:45;;;;;;;8.48;4.03;;;;;;;15.57;100.00;95712.41;1052681;28;20465;-51
2021/06/18 01:45:17;;;;;;;5.72;3.92;;;;;;;15.55;100.00;95715.19;1052816;28;20436;-49
2021/06/18 01:45:48;;;;;;;6.75;4.07;;;;;;;15.54;100.00;95718.78;1052474;28;20149;-50
2021/06/18 01:46:22;;;;;;;7.65;4.60;;;;;;;15.52;100.00;95711.03;1052215;28;20069;-51
2021/06/18 01:46:53;;;;;;;6.60;4.15;;;;;;;15.45;100.00;95712.59;1052637;28;20461;-50
2021/06/18 01:47:25;;;;;;;8.80;4.45;;;;;;;15.42;100.00;95714.69;1052737;28;20031;-49
2021/06/18 01:47:56;;;;;;;6.18;4.03;;;;;;;15.40;100.00;95708.72;1052860;28;20020;-50
2021/06/18 01:48:26;;;;;;;7.35;4.18;;;;;;;15.34;100.00;95707.47;1052700;28;20016;-49
2021/06/18 01:49:01;;;;;;;7.38;4.22;;;;;;;15.31;100.00;95705.94;1052668;28;20079;-50
2021/06/18 01:49:33;;;;;;;6.50;3.95;;;;;;;15.30;100.00;95704.28;1052369;28;20069;-50
2021/06/18 01:50:05;;;;;;;7.03;4.35;;;;;;;15.32;100.00;95704.97;1052445;28;20024;-49
2021/06/18 01:50:36;;;;;;;8.60;4.68;;;;;;;15.31;100.00;95708.59;1052351;28;20023;-48
2021/06/18 01:51:07;;;;;;;10.60;4.15;;;;;;;15.33;100.00;95705.81;1052439;28;20020;-50
2021/06/18 01:51:38;;;;;;;9.32;4.93;;;;;;;15.39;100.00;95699.13;1052742;28;20031;-49
2021/06/18 01:52:09;;;;;;;6.15;4.05;;;;;;;15.40;100.00;95701.63;1052718;28;20016;-49
2021/06/18 01:52:42;;;;;;;7.57;4.32;;;;;;;15.39;100.00;95697.34;1052631;28;20020;-49
2021/06/18 01:53:16;;;;;;;5.82;4.57;;;;;;;15.38;100.00;95697.47;1052609;28;20070;-49
2021/06/18 01:53:48;;;;;;;7.70;4.05;;;;;;;15.35;100.00;95701.22;1052076;28;20027;-49
2021/06/18 01:54:19;;;;;;;5.80;3.92;;;;;;;15.34;100.00;95696.94;1052746;28;20023;-49
2021/06/18 01:54:57;;;;;;;12.40;5.55;;;;;;;15.29;100.00;95694.69;1052707;28;20012;-49
2021/06/18 01:55:28;;;;;;;7.63;4.40;;;;;;;15.31;100.00;95694.56;1052680;28;20485;-50
2021/06/18 01:55:59;;;;;;;8.68;5.20;;;;;;;15.29;100.00;95693.88;1052725;28;20023;-48
2021/06/18 01:56:31;;;;;;;10.52;4.57;;;;;;;15.28;100.00;95695.69;1052776;28;20115;-51
2021/06/18 01:57:01;;;;;;;7.90;4.97;;;;;;;15.28;100.00;95693.06;1052672;28;20016;-51
2021/06/18 01:57:34;;;;;;;10.40;4.72;;;;;;;15.27;100.00;95690.53;1052672;28;20023;-49
2021/06/18 01:58:05;;;;;;;7.82;4.53;;;;;;;15.24;100.00;95696.97;1052794;28;20020;-49
2021/06/18 01:58:36;;;;;;;8.63;4.45;;;;;;;15.23;100.00;95692.63;1052654;28;20148;-50
2021/06/18 01:59:07;;;;;;;6.32;4.80;;;;;;;15.25;100.00;95698.59;1052724;28;20144;-49
2021/06/18 01:59:37;;;;;;;6.85;4.43;;;;;;;15.27;100.00;95698.47;1052526;28;20105;-50
2021/06/18 02:00:09;;;;;;;10.07;5.03;;;;;;;15.29;100.00;95699.97;1052724;28;20023;-50
2021/06/18 02:00:43;;;;;;;7.65;4.82;;;;;;;15.28;100.00;95697.50;1052812;28;20024;-50
2021/06/18 02:01:15;;;;;;;7.60;5.25;;;;;;;15.27;100.00;95699.28;1052677;28;20161;-51
2021/06/18 02:01:47;;;;;;;7.18;4.90;;;;;;;15.25;100.00;95695.97;1052498;28;20031;-51
2021/06/18 02:02:18;;;;;;;6.95;5.07;;;;;;;15.22;100.00;95698.06;1052596;28;20020;-52
2021/06/18 02:02:50;;;;;;;6.65;5.07;;;;;;;15.20;100.00;95697.38;1052600;28;20028;-50
2021/06/18 02:03:23;;;;;;;6.45;4.72;;;;;;;15.19;100.00;95699.19;1052798;28;20110;-50
2021/06/18 02:03:54;;;;;;;8.13;4.90;;;;;;;15.18;100.00;95694.88;1052151;28;20099;-51
2021/06/18 02:04:24;;;;;;;7.00;4.80;;;;;;;15.22;100.00;95701.56;1052631;28;20016;-49
2021/06/18 02:04:55;;;;;;;7.20;4.65;;;;;;;15.20;100.00;95697.38;1052566;28;20027;-49
2021/06/18 02:05:26;;;;;;;7.13;5.18;;;;;;;15.15;100.00;95695.16;1052787;28;20023;-50
2021/06/18 02:05:58;;;;;;;10.32;4.90;;;;;;;15.09;100.00;95707.13;1052530;28;20030;-50
2021/06/18 02:06:29;;;;;;;7.57;4.97;;;;;;;15.08;100.00;95699.34;1052732;28;20023;-50
2021/06/18 02:07:00;;;;;;;7.32;5.05;;;;;;;15.04;100.00;95695.34;1052637;28;20035;-50
2021/06/18 02:07:30;;;;;;;6.70;5.10;;;;;;;15.05;100.00;95694.34;1052722;28;20020;-50
2021/06/18 02:08:02;;;;;;;7.15;4.68;;;;;;;14.98;100.00;95694.09;1052517;28;20022;-49
2021/06/18 02:08:32;;;;;;;7.10;5.20;;;;;;;14.99;100.00;95697.56;1052691;28;20030;-51
2021/06/18 02:09:04;;;;;;;8.32;5.45;;;;;;;14.99;100.00;95695.75;1052683;28;20039;-49
2021/06/18 02:09:35;;;;;;;7.15;4.97;;;;;;;14.95;100.00;95697.81;1052584;28;20020;-49
2021/06/18 02:10:08;;;;;;;9.98;5.00;;;;;;;14.95;100.00;95695.19;1052549;28;20050;-51
2021/06/18 02:10:41;;;;;;;11.88;4.97;;;;;;;14.94;100.00;95704.09;1052700;28;20428;-50
2021/06/18 02:11:13;;;;;;;8.23;5.22;;;;;;;14.97;100.00;95702.97;1052697;28;20012;-50
2021/06/18 02:11:43;;;;;;;11.65;5.30;;;;;;;14.96;100.00;95699.50;1052611;28;20047;-49
2021/06/18 02:12:15;;;;;;;9.27;5.03;;;;;;;14.96;100.00;95699.50;1052398;28;20020;-50
2021/06/18 02:12:47;;;;;;;9.05;5.03;;;;;;;14.95;100.00;95703.09;1052423;28;20473;-51
2021/06/18 02:13:18;;;;;;;6.80;4.53;;;;;;;14.98;100.00;95699.38;1052280;28;20012;-51
2021/06/18 02:13:49;;;;;;;7.30;4.53;;;;;;;14.99;100.00;95708.09;1051697;28;20035;-49
2021/06/18 02:14:20;;;;;;;7.55;4.68;;;;;;;15.00;100.00;95705.34;1052061;28;20016;-49
2021/06/18 02:14:51;;;;;;;6.60;4.40;;;;;;;14.99;100.00;95710.75;1052588;28;20023;-50
2021/06/18 02:15:22;;;;;;;5.80;4.28;;;;;;;14.96;100.00;95699.50;1052723;28;20031;-49
2021/06/18 02:15:53;;;;;;;11.15;4.65;;;;;;;15.00;100.00;95704.47;1052739;28;20092;-49
2021/06/18 02:16:25;;;;;;;6.97;4.55;;;;;;;14.99;100.00;95705.47;1052578;28;20023;-49
2021/06/18 02:16:59;;;;;;;8.02;4.68;;;;;;;14.97;100.00;95711.69;1052265;28;20040;-49
2021/06/18 02:17:29;;;;;;;9.43;4.40;;;;;;;14.95;100.00;95703.09;1052344;28;20112;-49
2021/06/18 02:18:01;;;;;;;9.45;5.13;;;;;;;14.95;100.00;95708.38;1052325;28;20023;-49
2021/06/18 02:18:31;;;;;;;7.60;4.45;;;;;;;14.94;100.00;95706.72;1052367;28;20091;-49
2021/06/18 02:19:02;;;;;;;6.80;4.40;;;;;;;14.91;100.00;95707.00;1052603;28;20466;-49
2021/06/18 02:19:35;;;;;;;8.98;4.78;;;;;;;14.90;100.00;95707.13;1052548;28;20031;-49
2021/06/18 02:20:07;;;;;;;5.80;4.45;;;;;;;14.88;100.00;95702.00;1052597;28;20508;-49
2021/06/18 02:20:39;;;;;;;6.70;4.40;;;;;;;14.88;100.00;95704.63;1052625;28;20035;-49
2021/06/18 02:21:10;;;;;;;8.63;4.85;;;;;;;14.86;100.00;95708.41;1052631;28;20004;-49
2021/06/18 02:21:40;;;;;;;8.50;4.50;;;;;;;14.85;100.00;95697.03;1052664;28;20027;-50
2021/06/18 02:22:11;;;;;;;7.05;4.45;;;;;;;14.85;100.00;95710.22;1052603;28;20110;-50
2021/06/18 02:22:42;;;;;;;7.68;4.65;;;;;;;14.84;100.00;95700.63;1052522;28;20087;-49
2021/06/18 02:23:14;;;;;;;7.90;4.65;;;;;;;14.86;100.00;95705.75;1052556;28;20378;-50
2021/06/18 02:23:44;;;;;;;8.07;4.50;;;;;;;14.83;100.00;95704.25;1052036;28;20356;-49
2021/06/18 02:24:16;;;;;;;12.80;5.07;;;;;;;14.83;100.00;95700.75;1052602;28;20432;-49
2021/06/18 02:24:46;;;;;;;6.45;4.65;;;;;;;14.82;100.00;95697.28;1052637;28;20069;-49
2021/06/18 02:25:17;;;;;;;7.25;4.60;;;;;;;14.83;100.00;95704.25;1052587;28;20088;-50
2021/06/18 02:25:49;;;;;;;6.70;4.75;;;;;;;14.85;100.00;95699.66;1052641;28;20072;-49
2021/06/18 02:26:20;;;;;;;6.55;4.47;;;;;;;14.84;100.00;95705.88;1052603;28;20047;-50
2021/06/18 02:26:51;;;;;;;8.70;5.05;;;;;;;14.84;100.00;95711.16;1052540;28;20012;-50
2021/06/18 02:27:22;;;;;;;7.90;4.97;;;;;;;14.84;100.00;95703.25;1052666;28;20352;-49
2021/06/18 02:27:53;;;;;;;6.03;4.35;;;;;;;14.84;100.00;95702.44;1052694;28;20024;-51
2021/06/18 02:28:24;;;;;;;7.93;4.47;;;;;;;14.82;100.00;95699.94;1052589;28;20035;-48
2021/06/18 02:28:55;;;;;;;8.40;4.38;;;;;;;14.84;100.00;95703.25;1052429;28;20028;-50
2021/06/18 02:29:26;;;;;;;8.18;4.55;;;;;;;14.85;100.00;95704.94;1052514;28;20133;-49
2021/06/18 02:29:56;;;;;;;7.13;4.47;;;;;;;14.86;100.00;95703.13;1052543;28;20020;-49
2021/06/18 02:30:27;;;;;;;8.57;4.72;;;;;;;14.90;100.00;95707.13;1052562;28;20040;-50